クライストチャーチ の空港の天気 - METARとTAF

クライストチャーチ国際空港 ( NZCH / CHC ) - ニュージーランド クライストチャーチ
飛行場実況気象(Metar)
観測時間01/23 18:30 NZDT (01/23 05:30 UTC)
風向・風速東北東 7m/s
視程10km以上
天気現象
なし
気温22℃
湿度73%
気圧1009hPa
METARNZCH 230530Z AUTO 07013KT 9999 NCD 22/17 Q1009 NOSIG
過去の天気等 Google飛行場航空写真 Wunderground天気予報

過去48時間のMETAR

飛行場予報(TAF)
発表時間: 1/23 18:01 NZDT (1/23 05:01 UTC)
予報対象時間: 23日19時 NZDT ~ 24日19時 NZDT
風向・風速東北東 6m/s
視程10km以上
なし
23日21時 NZDT ~ 23日23時 NZDT に徐々に
風向・風速西北西 3m/s
24日11時 NZDT ~ 24日13時 NZDT に徐々に
風向・風速東北東 8m/s
TAF NZCH 230501Z 2306/2406 07012KT CAVOK
BECMG 2308/2310 29005KT
BECMG 2322/2400 07015KT